createdAt,value
2018-12-30T00:00:21.072Z,71.30
2018-12-30T00:03:03.189Z,69.60
2018-12-30T00:05:44.312Z,69.70
2018-12-30T00:08:25.314Z,67.80
2018-12-30T00:11:09.483Z,68.90
2018-12-30T00:13:50.471Z,70.20
2018-12-30T00:16:31.574Z,68.70
2018-12-30T00:19:12.296Z,66.50
2018-12-30T00:21:53.783Z,66.60
2018-12-30T00:24:34.723Z,64.70
2018-12-30T00:27:16.157Z,63.00
2018-12-30T00:29:57.052Z,62.90
2018-12-30T00:32:38.986Z,63.10
2018-12-30T00:35:24.292Z,64.80
2018-12-30T00:38:04.768Z,64.40
2018-12-30T00:40:45.970Z,62.70
2018-12-30T00:43:14.017Z,64.80
2018-12-30T00:46:05.252Z,64.70
2018-12-30T00:48:34.224Z,63.80
2018-12-30T00:54:45.335Z,65.90
2018-12-30T00:57:25.214Z,64.60
2018-12-30T01:00:05.368Z,64.80
2018-12-30T01:02:45.465Z,64.70
2018-12-30T01:05:25.626Z,67.60
2018-12-30T01:08:05.622Z,69.50
2018-12-30T01:10:45.856Z,68.10
2018-12-30T01:13:20.371Z,68.50
2018-12-30T01:16:07.593Z,67.00
2018-12-30T01:18:35.597Z,67.40
2018-12-30T01:21:15.087Z,67.40
2018-12-30T01:23:56.858Z,69.70
2018-12-30T01:26:36.523Z,71.90
2018-12-30T01:29:16.232Z,76.10
2018-12-30T01:31:56.415Z,75.10
2018-12-30T01:34:36.399Z,75.50
2018-12-30T01:37:17.347Z,74.70
2018-12-30T01:39:57.542Z,74.20
2018-12-30T01:42:36.913Z,74.60
2018-12-30T01:45:17.015Z,74.90
2018-12-30T01:47:57.219Z,74.60
2018-12-30T01:50:24.171Z,76.90
2018-12-30T01:52:54.543Z,78.10
2018-12-30T01:55:36.580Z,79.20
2018-12-30T01:58:17.755Z,83.90
2018-12-30T02:03:52.034Z,88.90
2018-12-30T02:09:52.298Z,90.10
2018-12-30T02:12:32.547Z,89.00
2018-12-30T02:15:12.921Z,88.50
2018-12-30T02:17:53.151Z,88.00
2018-12-30T02:20:33.221Z,85.00
2018-12-30T02:23:13.843Z,83.20
2018-12-30T02:25:53.719Z,81.10
2018-12-30T02:28:34.308Z,80.50
2018-12-30T02:31:14.227Z,80.40
2018-12-30T02:33:46.195Z,77.20
2018-12-30T02:36:34.934Z,77.20
2018-12-30T02:39:05.012Z,75.10
2018-12-30T02:41:53.084Z,73.70
2018-12-30T02:44:23.546Z,71.10
2018-12-30T02:47:12.258Z,68.30
2018-12-30T02:50:01.057Z,66.50
2018-12-30T02:52:47.890Z,66.90
2018-12-30T02:55:28.300Z,66.10
2018-12-30T02:57:58.467Z,65.80
2018-12-30T03:00:45.439Z,66.20
2018-12-30T03:03:30.161Z,67.10
2018-12-30T03:05:57.635Z,67.00
2018-12-30T03:08:25.267Z,66.60
2018-12-30T03:10:53.033Z,65.80
2018-12-30T03:13:22.706Z,65.30
2018-12-30T03:16:05.083Z,64.60
2018-12-30T03:18:47.157Z,62.80
2018-12-30T03:21:28.019Z,62.70
2018-12-30T03:24:02.028Z,62.70
2018-12-30T03:26:50.130Z,62.50
2018-12-30T03:29:37.486Z,64.00
2018-12-30T03:35:13.851Z,63.00
2018-12-30T03:37:53.965Z,63.10
2018-12-30T03:40:37.991Z,62.50
2018-12-30T03:43:18.539Z,62.40
2018-12-30T03:45:58.304Z,61.80
2018-12-30T03:48:38.632Z,62.20
2018-12-30T03:51:18.818Z,62.50
2018-12-30T03:53:58.751Z,63.00
2018-12-30T03:56:38.427Z,62.30
2018-12-30T03:59:05.763Z,62.60
2018-12-30T04:01:54.787Z,66.40
2018-12-30T04:04:36.297Z,64.80
2018-12-30T04:07:17.387Z,64.30
2018-12-30T04:09:58.908Z,63.30
2018-12-30T04:12:28.534Z,64.20
2018-12-30T04:15:17.767Z,63.90
2018-12-30T04:17:48.903Z,63.00
2018-12-30T04:20:31.097Z,63.00
2018-12-30T04:23:11.944Z,63.80
2018-12-30T04:25:53.223Z,64.80
2018-12-30T04:28:33.638Z,64.50
2018-12-30T04:31:15.105Z,64.60
2018-12-30T04:33:55.831Z,64.60
2018-12-30T04:36:37.029Z,64.30
2018-12-30T04:39:17.891Z,64.80
2018-12-30T04:41:59.199Z,64.40
2018-12-30T04:44:30.671Z,64.50
2018-12-30T04:47:00.300Z,64.50
2018-12-30T04:49:47.645Z,64.60
2018-12-30T04:52:29.179Z,65.30
2018-12-30T04:55:09.711Z,65.30
2018-12-30T04:57:51.111Z,66.30
2018-12-30T05:00:31.986Z,64.20
2018-12-30T05:03:13.268Z,65.90
2018-12-30T05:06:05.933Z,67.20
2018-12-30T05:08:35.560Z,68.40
2018-12-30T05:11:17.832Z,69.50
2018-12-30T05:16:40.216Z,70.60
2018-12-30T05:19:24.884Z,69.50
2018-12-30T05:22:06.195Z,69.80
2018-12-30T05:24:46.755Z,72.10
2018-12-30T05:27:28.193Z,70.20
2018-12-30T05:30:08.784Z,70.40
2018-12-30T05:32:50.271Z,69.40
2018-12-30T05:35:22.917Z,69.90
2018-12-30T05:38:09.488Z,69.60
2018-12-30T05:40:49.435Z,69.00
2018-12-30T05:43:17.465Z,69.60
2018-12-30T05:46:04.647Z,68.80
2018-12-30T05:48:44.423Z,69.20
2018-12-30T05:51:24.775Z,70.90
2018-12-30T05:54:04.918Z,71.90
2018-12-30T05:59:41.831Z,71.10
2018-12-30T06:02:22.642Z,73.30
2018-12-30T06:05:03.005Z,74.60
2018-12-30T06:07:43.409Z,74.30
2018-12-30T06:10:23.173Z,74.60
2018-12-30T06:13:03.175Z,73.50
2018-12-30T06:15:43.343Z,74.40
2018-12-30T06:18:23.655Z,74.30
2018-12-30T06:21:03.026Z,76.70
2018-12-30T06:23:43.436Z,76.70
2018-12-30T06:26:34.732Z,76.70
2018-12-30T06:29:21.678Z,76.10
2018-12-30T06:32:01.881Z,75.30
2018-12-30T06:34:34.493Z,75.00
2018-12-30T06:37:21.463Z,76.20
2018-12-30T06:42:42.005Z,77.30
2018-12-30T06:45:11.018Z,78.40
2018-12-30T06:47:51.544Z,77.00
2018-12-30T06:50:35.646Z,78.90
2018-12-30T06:53:15.313Z,80.80
2018-12-30T06:55:55.056Z,82.10
2018-12-30T06:58:35.428Z,80.50
2018-12-30T07:01:15.122Z,78.90
2018-12-30T07:03:55.366Z,78.10
2018-12-30T07:06:35.702Z,79.00
2018-12-30T07:09:16.075Z,80.80
2018-12-30T07:11:47.739Z,81.10
2018-12-30T07:14:34.853Z,83.10
2018-12-30T07:17:14.431Z,83.30
2018-12-30T07:19:42.255Z,83.70
2018-12-30T07:22:29.542Z,85.80
2018-12-30T07:25:09.456Z,87.60
2018-12-30T07:27:52.632Z,87.00
2018-12-30T07:30:34.035Z,86.70
2018-12-30T07:33:07.064Z,88.10
2018-12-30T07:35:55.240Z,88.30
2018-12-30T07:38:24.758Z,88.20
2018-12-30T07:41:13.574Z,87.80
2018-12-30T07:43:45.768Z,86.60
2018-12-30T07:46:34.772Z,86.60
2018-12-30T07:49:05.460Z,88.30
2018-12-30T07:51:53.939Z,87.40
2018-12-30T07:54:25.935Z,86.50
2018-12-30T07:57:16.701Z,88.10
2018-12-30T08:00:20.025Z,89.50
2018-12-30T08:02:59.787Z,89.30
2018-12-30T08:08:26.838Z,90.00
2018-12-30T08:11:13.668Z,91.40
2018-12-30T08:13:54.015Z,91.80
2018-12-30T08:16:34.175Z,91.60
2018-12-30T08:19:14.134Z,92.00
2018-12-30T08:21:54.860Z,92.10
2018-12-30T08:24:34.335Z,91.90
2018-12-30T08:27:14.566Z,91.90
2018-12-30T08:29:54.300Z,91.90
2018-12-30T08:32:34.424Z,91.80
2018-12-30T08:35:14.537Z,91.50
2018-12-30T08:37:41.554Z,91.10
2018-12-30T08:40:29.496Z,90.40
2018-12-30T08:43:11.969Z,90.50
2018-12-30T08:45:51.759Z,90.30
2018-12-30T08:48:33.040Z,89.50
2018-12-30T08:51:14.040Z,89.90
2018-12-30T08:53:54.990Z,90.00
2018-12-30T08:56:36.024Z,89.10
2018-12-30T08:59:18.066Z,88.70
2018-12-30T09:02:00.998Z,88.50
2018-12-30T09:07:27.338Z,89.10
2018-12-30T09:10:07.303Z,87.60
2018-12-30T09:12:47.274Z,86.30
2018-12-30T09:15:38.407Z,86.80
2018-12-30T09:18:25.075Z,84.10
2018-12-30T09:21:05.368Z,85.30
2018-12-30T09:23:45.730Z,84.30
2018-12-30T09:26:25.813Z,82.50
2018-12-30T09:29:05.671Z,79.50
2018-12-30T09:31:45.550Z,79.40
2018-12-30T09:34:25.912Z,79.20
2018-12-30T09:37:06.048Z,79.00
2018-12-30T09:39:45.778Z,79.40
2018-12-30T09:42:25.751Z,78.30
2018-12-30T09:44:58.600Z,75.80
2018-12-30T09:47:45.644Z,76.40
2018-12-30T09:50:27.775Z,75.00
2018-12-30T09:53:07.687Z,75.80
2018-12-30T09:55:48.224Z,76.10
2018-12-30T09:58:33.429Z,76.30
2018-12-30T10:01:14.224Z,74.60
2018-12-30T10:06:40.599Z,73.90
2018-12-30T10:09:20.512Z,72.50
2018-12-30T10:11:47.598Z,74.80
2018-12-30T10:14:17.726Z,74.60
2018-12-30T10:16:59.451Z,71.80
2018-12-30T10:19:40.019Z,71.80
2018-12-30T10:22:21.465Z,71.50
2018-12-30T10:25:02.019Z,72.90
2018-12-30T10:27:43.209Z,71.60
2018-12-30T10:30:23.830Z,70.30
2018-12-30T10:33:04.760Z,70.90
2018-12-30T10:35:45.571Z,71.40
2018-12-30T10:38:26.663Z,71.80
2018-12-30T10:41:06.403Z,71.20
2018-12-30T10:43:46.747Z,70.50
2018-12-30T10:46:26.344Z,70.80
2018-12-30T10:49:06.441Z,71.40
2018-12-30T10:51:47.130Z,70.60
2018-12-30T10:54:28.511Z,71.20
2018-12-30T10:57:09.827Z,71.00
2018-12-30T10:59:40.220Z,70.90
2018-12-30T11:02:28.911Z,70.80
2018-12-30T11:04:58.121Z,73.50
2018-12-30T11:07:45.844Z,74.90
2018-12-30T11:10:37.698Z,75.00
2018-12-30T11:13:24.460Z,73.10
2018-12-30T11:15:51.658Z,71.60
2018-12-30T11:21:35.786Z,71.60
2018-12-30T11:24:15.909Z,72.90
2018-12-30T11:26:42.886Z,73.50
2018-12-30T11:29:31.446Z,71.70
2018-12-30T11:32:11.223Z,69.90
2018-12-30T11:34:52.272Z,70.20
2018-12-30T11:40:29.985Z,69.30
2018-12-30T11:42:57.125Z,68.00
2018-12-30T11:49:12.590Z,66.20
2018-12-30T11:51:52.662Z,67.20
2018-12-30T11:54:32.759Z,67.00
2018-12-30T11:57:13.161Z,65.80
2018-12-30T11:59:53.177Z,65.90
2018-12-30T12:02:32.931Z,65.40
2018-12-30T12:05:13.019Z,65.10
2018-12-30T12:07:53.390Z,65.20
2018-12-30T12:10:33.266Z,65.90
2018-12-30T12:13:13.364Z,65.10
2018-12-30T12:15:53.415Z,65.20
2018-12-30T12:18:23.478Z,63.60
2018-12-30T12:20:50.798Z,63.50
2018-12-30T12:23:31.146Z,63.20
2018-12-30T12:26:11.260Z,63.60
2018-12-30T12:28:51.464Z,63.00
2018-12-30T12:31:31.490Z,64.20
2018-12-30T12:34:11.631Z,65.40
2018-12-30T12:36:39.116Z,65.40
2018-12-30T12:39:25.799Z,64.90
2018-12-30T12:42:08.645Z,64.80
2018-12-30T12:44:48.583Z,64.80
2018-12-30T12:47:28.486Z,64.00
2018-12-30T12:50:08.711Z,64.60
2018-12-30T12:52:48.507Z,65.30
2018-12-30T12:55:28.580Z,65.30
2018-12-30T12:58:08.430Z,65.30
2018-12-30T13:00:48.582Z,65.20
2018-12-30T13:03:29.687Z,67.40
2018-12-30T13:06:10.548Z,67.70
2018-12-30T13:08:51.834Z,66.50
2018-12-30T13:11:32.195Z,67.10
2018-12-30T13:14:02.709Z,66.40
2018-12-30T13:16:51.287Z,66.70
2018-12-30T13:19:26.793Z,66.60
2018-12-30T13:22:06.354Z,68.80
2018-12-30T13:24:47.127Z,68.90
2018-12-30T13:27:28.015Z,69.10
2018-12-30T13:30:09.275Z,68.30
2018-12-30T13:32:50.381Z,68.10
2018-12-30T13:35:31.475Z,67.50
2018-12-30T13:38:12.698Z,66.50
2018-12-30T13:40:53.419Z,67.20
2018-12-30T13:43:34.672Z,67.00
2018-12-30T13:46:06.713Z,65.40
2018-12-30T13:48:36.126Z,65.20
2018-12-30T13:51:17.720Z,65.30
2018-12-30T13:53:49.459Z,64.60
2018-12-30T13:56:31.241Z,65.40
2018-12-30T13:59:12.228Z,64.30
2018-12-30T14:01:41.023Z,65.10
2018-12-30T14:04:30.243Z,64.60
2018-12-30T14:07:01.103Z,65.20
2018-12-30T14:13:20.402Z,65.20
2018-12-30T14:16:03.433Z,65.30
2018-12-30T14:18:43.892Z,67.60
2018-12-30T14:21:23.771Z,69.30
2018-12-30T14:24:03.939Z,72.40
2018-12-30T14:26:31.686Z,80.00
2018-12-30T14:29:21.944Z,82.50
2018-12-30T14:32:01.963Z,84.20
2018-12-30T14:34:43.320Z,86.70
2018-12-30T14:37:24.359Z,86.50
2018-12-30T14:40:05.515Z,89.00
2018-12-30T14:42:46.497Z,90.40
2018-12-30T14:45:17.630Z,91.20
2018-12-30T14:48:06.397Z,90.90
2018-12-30T14:50:47.565Z,91.20
2018-12-30T14:53:32.419Z,92.10
2018-12-30T14:56:12.479Z,92.00
2018-12-30T14:58:52.878Z,93.30
2018-12-30T15:01:33.544Z,94.60
2018-12-30T15:04:13.236Z,94.40
2018-12-30T15:06:40.964Z,94.60
2018-12-30T15:09:35.643Z,94.90
2018-12-30T15:12:19.468Z,95.10
2018-12-30T15:15:09.927Z,95.90
2018-12-30T15:17:51.737Z,95.20
2018-12-30T15:20:32.450Z,94.30
2018-12-30T15:23:13.386Z,94.60
2018-12-30T15:25:53.260Z,94.20
2018-12-30T15:28:28.163Z,94.30
2018-12-30T15:31:07.990Z,94.20
2018-12-30T15:33:48.047Z,93.90
2018-12-30T15:36:28.336Z,94.90
2018-12-30T15:39:09.279Z,95.60
2018-12-30T15:41:50.470Z,96.80
2018-12-30T15:45:00.598Z,96.70
2018-12-30T15:50:55.988Z,95.90
2018-12-30T15:53:36.320Z,96.00
2018-12-30T15:56:16.244Z,96.30
2018-12-30T15:58:57.491Z,97.60
2018-12-30T16:01:38.499Z,98.80
2018-12-30T16:04:26.918Z,99.70
2018-12-30T16:07:08.647Z,99.90
2018-12-30T16:09:49.884Z,99.90
2018-12-30T16:12:31.076Z,99.90
2018-12-30T16:15:10.888Z,99.90
2018-12-30T16:17:50.834Z,99.90
2018-12-30T16:20:37.883Z,99.90
2018-12-30T16:23:24.596Z,99.90
2018-12-30T16:26:06.091Z,99.60
2018-12-30T16:28:46.924Z,99.80
2018-12-30T16:31:28.367Z,99.90
2018-12-30T16:34:09.432Z,99.90
2018-12-30T16:36:50.359Z,99.50
2018-12-30T16:39:31.140Z,99.90
2018-12-30T16:41:59.235Z,99.30
2018-12-30T16:44:47.874Z,99.50
2018-12-30T16:47:28.420Z,99.90
2018-12-30T16:50:08.546Z,99.90
2018-12-30T16:52:48.423Z,99.90
2018-12-30T16:55:34.707Z,99.90
2018-12-30T16:58:10.214Z,99.90
2018-12-30T17:00:51.050Z,99.80
2018-12-30T17:03:35.895Z,99.90
2018-12-30T17:06:16.377Z,99.90
2018-12-30T17:08:57.639Z,99.90
2018-12-30T17:11:38.071Z,99.90
2018-12-30T17:14:19.343Z,99.90
2018-12-30T17:16:59.397Z,99.90
2018-12-30T17:19:39.287Z,99.90
2018-12-30T17:22:19.116Z,99.90
2018-12-30T17:24:59.195Z,99.90
2018-12-30T17:27:26.708Z,99.90
2018-12-30T17:30:14.623Z,99.90
2018-12-30T17:32:44.718Z,99.90
2018-12-30T17:35:36.016Z,99.90
2018-12-30T17:38:18.336Z,99.90
2018-12-30T17:41:01.631Z,99.90
2018-12-30T17:43:43.636Z,99.90
2018-12-30T17:46:18.192Z,99.90
2018-12-30T17:49:28.178Z,99.90
2018-12-30T17:52:10.735Z,99.90
2018-12-30T17:54:50.839Z,99.90
2018-12-30T17:57:35.210Z,99.90
2018-12-30T18:00:15.127Z,99.90
2018-12-30T18:02:55.886Z,99.90
2018-12-30T18:05:24.146Z,99.90
2018-12-30T18:08:13.198Z,99.90
2018-12-30T18:10:55.554Z,99.90
2018-12-30T18:13:30.350Z,99.90
2018-12-30T18:16:19.495Z,99.90
2018-12-30T18:19:08.653Z,99.90
2018-12-30T18:21:49.434Z,99.90
2018-12-30T18:24:30.011Z,99.90
2018-12-30T18:27:10.651Z,99.90
2018-12-30T18:29:51.562Z,99.90
2018-12-30T18:32:32.357Z,99.90
2018-12-30T18:35:12.277Z,99.90
2018-12-30T18:37:53.296Z,99.90
2018-12-30T18:40:34.348Z,99.90
2018-12-30T18:43:15.256Z,99.90
2018-12-30T18:45:56.786Z,99.90
2018-12-30T18:48:40.068Z,99.90
2018-12-30T18:51:25.655Z,99.90
2018-12-30T18:54:06.275Z,99.90
2018-12-30T18:56:46.191Z,99.90
2018-12-30T18:59:26.297Z,99.90
2018-12-30T19:02:06.038Z,99.90
2018-12-30T19:04:46.024Z,99.90
2018-12-30T19:07:27.208Z,99.90
2018-12-30T19:10:08.649Z,99.90
2018-12-30T19:12:36.627Z,99.90
2018-12-30T19:15:06.575Z,99.90
2018-12-30T19:17:48.699Z,99.90
2018-12-30T19:20:29.893Z,99.90
2018-12-30T19:23:10.898Z,99.90
2018-12-30T19:25:51.805Z,99.90
2018-12-30T19:28:32.853Z,99.90
2018-12-30T19:31:23.689Z,99.90
2018-12-30T19:34:10.879Z,99.90
2018-12-30T19:36:50.655Z,99.90
2018-12-30T19:39:19.751Z,99.90
2018-12-30T19:41:46.697Z,99.90
2018-12-30T19:44:26.492Z,99.90
2018-12-30T19:47:06.583Z,99.90
2018-12-30T19:49:47.707Z,99.90
2018-12-30T19:52:19.566Z,99.90
2018-12-30T19:55:08.199Z,99.90
2018-12-30T19:57:49.664Z,99.90
2018-12-30T20:00:34.103Z,99.90
2018-12-30T20:03:19.895Z,99.90
2018-12-30T20:06:00.391Z,99.90
2018-12-30T20:08:40.469Z,99.90
2018-12-30T20:11:20.195Z,99.90
2018-12-30T20:14:00.236Z,99.90
2018-12-30T20:16:27.530Z,99.90
2018-12-30T20:18:58.990Z,99.90
2018-12-30T20:21:38.945Z,99.90
2018-12-30T20:24:20.816Z,99.90
2018-12-30T20:27:01.912Z,99.90
2018-12-30T20:29:43.383Z,99.90
2018-12-30T20:32:24.683Z,99.90
2018-12-30T20:34:53.118Z,99.90
2018-12-30T20:37:23.440Z,99.90
2018-12-30T20:40:06.271Z,99.90
2018-12-30T20:42:48.825Z,99.90
2018-12-30T20:45:29.582Z,99.90
2018-12-30T20:48:10.012Z,99.90
2018-12-30T20:50:50.682Z,99.90
2018-12-30T20:53:18.050Z,99.90
2018-12-30T20:56:07.448Z,99.90
2018-12-30T20:58:47.155Z,99.90
2018-12-30T21:01:28.512Z,99.90
2018-12-30T21:04:09.736Z,99.90
2018-12-30T21:06:37.926Z,99.90
2018-12-30T21:09:26.816Z,99.90
2018-12-30T21:12:09.055Z,99.90
2018-12-30T21:15:04.870Z,99.90
2018-12-30T21:17:53.946Z,99.90
2018-12-30T21:20:23.422Z,99.90
2018-12-30T21:26:09.315Z,99.90
2018-12-30T21:28:56.963Z,99.90
2018-12-30T21:31:38.209Z,99.90
2018-12-30T21:34:19.299Z,99.90
2018-12-30T21:37:00.859Z,99.90
2018-12-30T21:39:41.752Z,99.90
2018-12-30T21:42:23.200Z,99.90
2018-12-30T21:44:50.504Z,99.90
2018-12-30T21:47:20.199Z,99.90
2018-12-30T21:50:01.971Z,99.90
2018-12-30T21:52:44.125Z,99.90
2018-12-30T21:55:23.733Z,99.90
2018-12-30T21:58:04.851Z,99.90
2018-12-30T22:00:45.655Z,99.90
2018-12-30T22:03:25.103Z,99.90
2018-12-30T22:05:54.091Z,99.90
2018-12-30T22:08:44.526Z,99.90
2018-12-30T22:11:14.285Z,99.90
2018-12-30T22:14:03.045Z,99.90
2018-12-30T22:16:54.370Z,99.90
2018-12-30T22:19:43.371Z,99.90
2018-12-30T22:22:32.201Z,99.90
2018-12-30T22:25:15.309Z,99.90
2018-12-30T22:27:55.963Z,99.90
2018-12-30T22:30:36.086Z,99.90
2018-12-30T22:33:17.350Z,99.90
2018-12-30T22:36:05.588Z,99.90
2018-12-30T22:38:54.301Z,99.90
2018-12-30T22:41:36.183Z,99.90
2018-12-30T22:44:17.371Z,99.90
2018-12-30T22:47:02.327Z,99.90
2018-12-30T22:49:42.337Z,99.90
2018-12-30T22:52:22.519Z,99.90
2018-12-30T22:55:02.267Z,99.90
2018-12-30T22:57:42.476Z,99.90
2018-12-30T23:00:42.093Z,99.90
2018-12-30T23:03:23.450Z,99.90
2018-12-30T23:09:12.752Z,99.90
2018-12-30T23:11:59.581Z,99.90
2018-12-30T23:14:39.639Z,99.90
2018-12-30T23:17:30.114Z,99.90
2018-12-30T23:20:07.644Z,99.90
2018-12-30T23:22:49.251Z,99.90
2018-12-30T23:25:30.442Z,99.90
2018-12-30T23:28:11.233Z,99.90
2018-12-30T23:30:52.346Z,99.90
2018-12-30T23:33:33.443Z,99.90
2018-12-30T23:36:14.543Z,99.90
2018-12-30T23:38:59.958Z,99.90
2018-12-30T23:41:39.711Z,99.90
2018-12-30T23:44:20.782Z,99.90
2018-12-30T23:46:48.231Z,99.90
2018-12-30T23:49:40.052Z,99.90
2018-12-30T23:52:20.172Z,99.90
2018-12-30T23:57:55.026Z,99.90
